createdAt,value
2023-04-24T00:01:16.278Z,6.32
2023-04-24T00:03:46.369Z,6.82
2023-04-24T00:06:13.628Z,6.38
2023-04-24T00:08:44.783Z,5.78
2023-04-24T00:11:11.778Z,7.00
2023-04-24T00:13:40.754Z,10.32
2023-04-24T00:16:07.472Z,6.05
2023-04-24T00:18:34.175Z,6.05
2023-04-24T00:21:02.935Z,7.15
2023-04-24T00:23:29.652Z,6.68
2023-04-24T00:25:56.423Z,6.50
2023-04-24T00:28:23.181Z,5.68
2023-04-24T00:30:50.405Z,6.00
2023-04-24T00:33:17.147Z,6.32
2023-04-24T00:35:43.780Z,6.63
2023-04-24T00:38:10.396Z,6.80
2023-04-24T00:40:37.211Z,6.80
2023-04-24T00:43:10.951Z,6.75
2023-04-24T00:45:37.790Z,7.53
2023-04-24T00:48:08.738Z,6.80
2023-04-24T00:50:42.629Z,7.32
2023-04-24T00:53:09.528Z,6.97
2023-04-24T00:55:38.361Z,6.60
2023-04-24T00:58:12.129Z,7.20
2023-04-24T01:00:41.842Z,7.03
2023-04-24T01:03:12.482Z,7.78
2023-04-24T01:05:41.960Z,7.78
2023-04-24T01:08:09.058Z,8.63
2023-04-24T01:10:43.585Z,8.27
2023-04-24T01:13:10.732Z,10.07
2023-04-24T01:15:43.668Z,10.30
2023-04-24T01:18:10.385Z,15.85
2023-04-24T01:20:48.380Z,27.20
2023-04-24T01:23:18.628Z,21.75
2023-04-24T01:25:46.100Z,11.13
2023-04-24T01:28:17.665Z,10.68
2023-04-24T01:30:45.644Z,11.90
2023-04-24T01:33:13.002Z,11.75
2023-04-24T01:35:43.502Z,11.48
2023-04-24T01:38:10.399Z,11.15
2023-04-24T01:40:37.113Z,11.18
2023-04-24T01:43:04.433Z,10.35
2023-04-24T01:45:31.291Z,11.23
2023-04-24T01:47:58.741Z,10.88
2023-04-24T01:50:25.855Z,10.13
2023-04-24T01:52:55.086Z,10.60
2023-04-24T01:55:22.002Z,11.40
2023-04-24T01:57:48.821Z,10.32
2023-04-24T02:00:16.080Z,10.75
2023-04-24T02:02:46.447Z,11.10
2023-04-24T02:05:14.399Z,10.43
2023-04-24T02:07:43.280Z,10.75
2023-04-24T02:10:11.630Z,10.18
2023-04-24T02:12:38.564Z,9.63
2023-04-24T02:15:08.614Z,10.18
2023-04-24T02:17:35.429Z,10.20
2023-04-24T02:20:28.452Z,10.07
2023-04-24T02:22:56.118Z,9.77
2023-04-24T02:25:23.339Z,10.05
2023-04-24T02:27:50.184Z,9.27
2023-04-24T02:30:17.062Z,9.68
2023-04-24T02:32:43.877Z,10.20
2023-04-24T02:35:15.260Z,9.07
2023-04-24T02:37:41.946Z,9.63
2023-04-24T02:40:11.886Z,11.68
2023-04-24T02:42:38.679Z,10.73
2023-04-24T02:45:06.608Z,10.55
2023-04-24T02:47:33.450Z,11.48
2023-04-24T02:50:00.056Z,10.70
2023-04-24T02:52:26.743Z,12.07
2023-04-24T02:54:55.989Z,11.02
2023-04-24T02:57:22.718Z,11.32
2023-04-24T02:59:49.453Z,11.18
2023-04-24T03:02:16.245Z,9.98
2023-04-24T03:04:46.718Z,10.88
2023-04-24T03:07:13.665Z,10.95
2023-04-24T03:09:45.448Z,11.57
2023-04-24T03:12:12.182Z,11.13
2023-04-24T03:14:38.934Z,11.75
2023-04-24T03:17:11.378Z,12.23
2023-04-24T03:19:37.967Z,9.70
2023-04-24T03:22:10.020Z,9.77
2023-04-24T03:24:36.790Z,9.90
2023-04-24T03:27:07.970Z,9.38
2023-04-24T03:29:34.722Z,10.00
2023-04-24T03:32:01.623Z,10.27
2023-04-24T03:34:36.516Z,10.23
2023-04-24T03:37:06.235Z,10.30
2023-04-24T03:39:32.935Z,11.35
2023-04-24T03:41:59.542Z,10.88
2023-04-24T03:44:26.328Z,11.45
2023-04-24T03:46:55.453Z,11.35
2023-04-24T03:49:22.980Z,10.88
2023-04-24T03:51:49.758Z,11.07
2023-04-24T03:54:16.486Z,11.30
2023-04-24T03:56:43.133Z,10.65
2023-04-24T03:59:10.006Z,9.65
2023-04-24T04:01:38.187Z,9.25
2023-04-24T04:04:09.097Z,9.60
2023-04-24T04:06:37.276Z,9.48
2023-04-24T04:09:04.219Z,10.23
2023-04-24T04:11:31.542Z,9.63
2023-04-24T04:13:58.380Z,9.18
2023-04-24T04:16:31.000Z,9.00
2023-04-24T04:18:57.949Z,8.65
2023-04-24T04:21:24.993Z,9.23
2023-04-24T04:23:51.655Z,10.68
2023-04-24T04:26:20.175Z,10.30
2023-04-24T04:28:48.689Z,9.48
2023-04-24T04:31:18.219Z,8.65
2023-04-24T04:33:45.104Z,8.77
2023-04-24T04:36:18.262Z,8.82
2023-04-24T04:38:48.450Z,8.48
2023-04-24T04:41:17.893Z,7.57
2023-04-24T04:43:46.952Z,8.00
2023-04-24T04:46:13.593Z,8.07
2023-04-24T04:48:41.308Z,7.28
2023-04-24T04:51:11.379Z,9.30
2023-04-24T04:53:43.594Z,8.57
2023-04-24T04:56:10.609Z,8.27
2023-04-24T04:58:37.167Z,7.88
2023-04-24T05:01:04.151Z,8.60
2023-04-24T05:03:30.898Z,8.07
2023-04-24T05:05:59.357Z,8.32
2023-04-24T05:08:27.521Z,8.13
2023-04-24T05:29:55.021Z,7.80
2023-04-24T05:32:24.304Z,7.03
2023-04-24T05:45:46.824Z,9.57
2023-04-24T06:39:45.711Z,5.38
2023-04-24T06:42:12.835Z,4.85
2023-04-24T06:44:42.420Z,4.65
2023-04-24T06:47:18.801Z,4.57
2023-04-24T06:52:28.747Z,3.85
2023-04-24T06:55:04.793Z,4.07
2023-04-24T06:57:34.815Z,3.60
2023-04-24T07:00:01.892Z,3.70
2023-04-24T07:02:28.695Z,3.70
2023-04-24T07:04:55.548Z,3.45
2023-04-24T07:07:24.253Z,3.80
2023-04-24T07:09:52.099Z,3.55
2023-04-24T07:12:22.744Z,4.03
2023-04-24T07:14:49.411Z,4.85
2023-04-24T07:17:16.111Z,3.08
2023-04-24T07:19:43.463Z,4.28
2023-04-24T07:22:15.527Z,3.58
2023-04-24T07:24:42.182Z,3.83
2023-04-24T07:27:08.825Z,3.72
2023-04-24T07:29:36.535Z,3.85
2023-04-24T07:32:04.515Z,3.10
2023-04-24T07:34:31.151Z,3.22
2023-04-24T07:37:00.676Z,3.17
2023-04-24T07:39:27.599Z,3.72
2023-04-24T07:41:56.710Z,3.60
2023-04-24T07:44:23.374Z,3.25
2023-04-24T07:46:50.502Z,4.00
2023-04-24T07:49:19.296Z,3.90
2023-04-24T07:51:49.273Z,4.50
2023-04-24T07:54:16.177Z,3.88
2023-04-24T07:56:44.911Z,4.10
2023-04-24T07:59:14.604Z,3.97
2023-04-24T08:01:44.254Z,4.75
2023-04-24T08:04:11.148Z,4.05
2023-04-24T08:06:38.096Z,4.07
2023-04-24T08:09:04.864Z,3.20
2023-04-24T08:11:31.602Z,3.30
2023-04-24T08:13:58.655Z,3.25
2023-04-24T08:16:25.499Z,3.47
2023-04-24T08:18:54.142Z,4.05
2023-04-24T08:21:21.694Z,3.70
2023-04-24T08:23:48.500Z,3.55
2023-04-24T08:26:18.224Z,3.50
2023-04-24T08:28:48.030Z,3.80
2023-04-24T08:31:19.611Z,3.40
2023-04-24T08:33:52.027Z,3.70
2023-04-24T08:36:19.000Z,5.15
2023-04-24T08:38:47.396Z,3.85
2023-04-24T08:41:19.967Z,4.32
2023-04-24T08:43:51.571Z,3.88
2023-04-24T08:46:24.484Z,3.22
2023-04-24T08:48:56.386Z,4.03
2023-04-24T08:51:28.510Z,4.18
2023-04-24T08:53:55.954Z,5.22
2023-04-24T08:56:28.129Z,3.35
2023-04-24T08:58:55.832Z,4.18
2023-04-24T09:01:26.124Z,3.63
2023-04-24T09:03:57.285Z,3.80
2023-04-24T09:06:29.753Z,4.00
2023-04-24T09:08:57.409Z,4.30
2023-04-24T09:11:26.599Z,4.22
2023-04-24T09:13:58.709Z,6.00
2023-04-24T09:16:29.098Z,4.05
2023-04-24T09:18:57.142Z,4.43
2023-04-24T09:21:26.344Z,3.92
2023-04-24T09:24:03.901Z,3.47
2023-04-24T09:26:33.624Z,4.20
2023-04-24T09:29:01.792Z,6.85
2023-04-24T09:31:30.805Z,4.10
2023-04-24T09:34:08.709Z,3.50
2023-04-24T09:36:43.617Z,3.83
2023-04-24T09:39:18.572Z,3.40
2023-04-24T09:42:00.867Z,3.72
2023-04-24T09:44:30.740Z,3.65
2023-04-24T09:47:01.563Z,4.32
2023-04-24T09:49:34.171Z,4.13
2023-04-24T09:52:11.421Z,3.97
2023-04-24T09:54:40.920Z,4.63
2023-04-24T09:57:11.148Z,4.93
2023-04-24T09:59:45.623Z,4.95
2023-04-24T10:02:22.187Z,4.95
2023-04-24T10:04:58.137Z,5.13
2023-04-24T10:07:30.258Z,4.55
2023-04-24T10:09:57.622Z,4.68
2023-04-24T10:12:26.150Z,5.07
2023-04-24T10:14:58.391Z,5.13
2023-04-24T10:17:27.052Z,8.30
2023-04-24T10:20:02.336Z,5.10
2023-04-24T10:22:34.847Z,5.57
2023-04-24T10:25:06.468Z,5.70
2023-04-24T10:41:28.608Z,6.60
2023-04-24T10:44:16.560Z,6.25
2023-04-24T10:46:56.753Z,5.60
2023-04-24T10:49:33.942Z,5.63
2023-04-24T10:52:08.701Z,5.50
2023-04-24T10:54:48.082Z,4.90
2023-04-24T10:57:31.075Z,5.53
2023-04-24T11:17:33.251Z,5.35
2023-04-24T11:22:58.672Z,5.28
2023-04-24T11:25:26.142Z,5.33
2023-04-24T11:28:06.468Z,4.65
2023-04-24T11:30:43.978Z,4.90
2023-04-24T11:33:10.819Z,5.70
2023-04-24T11:35:42.079Z,6.15
2023-04-24T11:38:24.117Z,6.72
2023-04-24T11:40:56.974Z,7.03
2023-04-24T11:43:28.943Z,6.68
2023-04-24T11:46:01.239Z,6.65
2023-04-24T11:48:30.686Z,6.22
2023-04-24T11:50:57.627Z,6.93
2023-04-24T11:53:24.930Z,5.95
2023-04-24T11:56:04.967Z,6.30
2023-04-24T11:58:46.142Z,6.30
2023-04-24T12:01:13.149Z,7.03
2023-04-24T12:03:44.451Z,7.35
2023-04-24T12:06:17.700Z,7.30
2023-04-24T12:08:51.446Z,7.13
2023-04-24T12:11:18.978Z,7.63
2023-04-24T12:13:48.768Z,7.82
2023-04-24T12:16:15.719Z,7.22
2023-04-24T12:18:53.487Z,7.68
2023-04-24T12:21:32.554Z,6.63
2023-04-24T12:23:59.523Z,7.28
2023-04-24T12:26:29.067Z,6.40
2023-04-24T12:28:56.028Z,7.65
2023-04-24T12:31:25.728Z,8.48
2023-04-24T12:33:54.940Z,7.22
2023-04-24T12:36:25.118Z,7.53
2023-04-24T12:39:15.381Z,6.97
2023-04-24T12:42:00.368Z,6.80
2023-04-24T12:44:35.621Z,7.65
2023-04-24T12:47:02.994Z,6.90
2023-04-24T12:49:32.147Z,7.25
2023-04-24T12:51:58.895Z,7.80
2023-04-24T12:54:34.773Z,7.63
2023-04-24T12:57:15.038Z,8.63
2023-04-24T12:59:49.264Z,9.00
2023-04-24T13:05:03.003Z,8.38
2023-04-24T13:07:34.249Z,9.82
2023-04-24T13:10:01.368Z,9.23
2023-04-24T13:12:28.180Z,9.50
2023-04-24T13:14:59.653Z,9.65
2023-04-24T13:17:26.585Z,9.48
2023-04-24T13:19:56.437Z,8.63
2023-04-24T13:22:26.225Z,8.35
2023-04-24T13:24:53.007Z,8.98
2023-04-24T13:27:19.968Z,8.77
2023-04-24T13:29:55.904Z,8.88
2023-04-24T13:32:24.847Z,8.75
2023-04-24T13:35:16.195Z,9.80
2023-04-24T13:37:50.547Z,9.55
2023-04-24T13:40:20.752Z,9.70
2023-04-24T13:42:47.692Z,10.38
2023-04-24T13:45:24.730Z,10.02
2023-04-24T13:47:56.590Z,8.52
2023-04-24T13:50:27.161Z,8.68
2023-04-24T13:53:02.646Z,9.80
2023-04-24T13:55:30.499Z,8.85
2023-04-24T13:57:58.788Z,10.13
2023-04-24T14:00:31.782Z,10.27
2023-04-24T14:02:58.663Z,9.02
2023-04-24T14:05:28.486Z,10.05
2023-04-24T14:07:57.898Z,10.38
2023-04-24T14:10:28.231Z,10.05
2023-04-24T14:12:55.876Z,9.70
2023-04-24T14:15:29.988Z,9.77
2023-04-24T14:20:30.865Z,8.73
2023-04-24T14:23:00.035Z,8.55
2023-04-24T14:25:35.425Z,9.38
2023-04-24T14:28:02.502Z,7.93
2023-04-24T14:30:29.406Z,8.13
2023-04-24T14:33:06.243Z,8.65
2023-04-24T14:35:35.057Z,8.40
2023-04-24T14:38:01.998Z,8.68
2023-04-24T14:43:05.090Z,7.07
2023-04-24T14:45:32.069Z,6.95
2023-04-24T14:47:58.908Z,6.63
2023-04-24T15:04:01.506Z,6.13
2023-04-24T15:06:32.478Z,6.55
2023-04-24T15:28:10.160Z,7.72
2023-04-24T15:30:37.183Z,7.15
2023-04-24T15:33:04.086Z,7.20
2023-04-24T15:35:31.268Z,7.63
2023-04-24T15:37:58.232Z,7.75
2023-04-24T15:40:25.204Z,7.32
2023-04-24T15:42:54.515Z,7.53
2023-04-24T15:45:21.225Z,8.23
2023-04-24T15:47:48.142Z,8.35
2023-04-24T15:56:04.772Z,6.13
2023-04-24T16:20:25.179Z,8.48
2023-04-24T16:36:23.990Z,5.47
2023-04-24T16:55:10.890Z,10.13
2023-04-24T16:57:37.989Z,11.20
2023-04-24T17:51:26.245Z,11.57
2023-04-24T17:53:56.219Z,10.77
2023-04-24T18:04:32.044Z,9.88
2023-04-24T18:23:23.045Z,9.40
2023-04-24T19:35:58.140Z,10.65
2023-04-24T20:27:31.100Z,9.32
2023-04-24T20:30:01.010Z,9.95
2023-04-24T20:32:28.241Z,14.10
2023-04-24T20:34:57.348Z,8.75
2023-04-24T20:37:24.979Z,8.40
2023-04-24T20:39:55.010Z,8.27
2023-04-24T20:42:25.769Z,8.60
2023-04-24T20:44:55.946Z,8.18
2023-04-24T20:47:25.961Z,8.75
2023-04-24T20:49:56.443Z,9.43
2023-04-24T20:52:23.191Z,8.65
2023-04-24T20:54:49.973Z,9.05
2023-04-24T20:57:20.978Z,12.40
2023-04-24T20:59:47.899Z,9.27
2023-04-24T21:02:14.918Z,7.60
2023-04-24T21:04:44.410Z,8.50
2023-04-24T21:07:12.896Z,8.38
2023-04-24T21:09:42.922Z,8.10
2023-04-24T21:12:15.944Z,7.85
2023-04-24T21:14:49.791Z,8.68
2023-04-24T21:17:18.024Z,8.57
2023-04-24T21:19:50.291Z,9.32
2023-04-24T21:22:17.065Z,8.75
2023-04-24T21:24:48.228Z,9.15
2023-04-24T21:27:15.103Z,9.02
2023-04-24T21:29:42.952Z,8.57
2023-04-24T21:32:12.325Z,10.27
2023-04-24T21:34:41.529Z,9.90
2023-04-24T21:37:11.408Z,10.38
2023-04-24T21:39:38.183Z,9.48
2023-04-24T21:42:05.126Z,10.43
2023-04-24T21:44:32.090Z,11.27
2023-04-24T21:46:59.506Z,11.18
2023-04-24T21:49:29.035Z,10.82
2023-04-24T21:51:56.177Z,13.35
2023-04-24T21:54:23.041Z,12.20
2023-04-24T21:56:50.128Z,10.82
2023-04-24T21:59:17.649Z,9.77
2023-04-24T22:01:48.481Z,10.95
2023-04-24T22:04:18.326Z,10.27
2023-04-24T22:06:45.082Z,10.30
2023-04-24T22:09:12.334Z,10.27
2023-04-24T22:11:39.130Z,10.88
2023-04-24T22:14:07.098Z,10.85
2023-04-24T22:16:34.502Z,9.95
2023-04-24T22:19:01.389Z,9.80
2023-04-24T22:21:28.621Z,10.18
2023-04-24T22:23:55.500Z,9.60
2023-04-24T22:26:22.719Z,10.25
2023-04-24T22:28:50.718Z,10.43
2023-04-24T22:31:18.010Z,10.52
2023-04-24T22:33:49.574Z,11.95
2023-04-24T22:36:16.439Z,10.88
2023-04-24T22:38:45.828Z,10.80
2023-04-24T22:41:13.049Z,10.48
2023-04-24T22:43:40.077Z,9.57
2023-04-24T22:46:07.004Z,9.38
2023-04-24T22:48:34.584Z,10.95
2023-04-24T22:51:01.615Z,10.50
2023-04-24T22:53:28.948Z,10.13
2023-04-24T22:56:02.799Z,9.15
2023-04-24T22:58:32.874Z,9.00
2023-04-24T23:01:00.019Z,9.57
2023-04-24T23:03:26.944Z,9.43
2023-04-24T23:05:56.907Z,10.13
2023-04-24T23:08:26.288Z,10.80
2023-04-24T23:10:56.517Z,9.90
2023-04-24T23:13:25.870Z,9.52
2023-04-24T23:15:55.137Z,9.55
2023-04-24T23:18:21.996Z,10.02
2023-04-24T23:20:49.035Z,10.18
2023-04-24T23:23:22.127Z,8.57
2023-04-24T23:25:49.182Z,8.98
2023-04-24T23:28:23.416Z,8.50
2023-04-24T23:33:21.078Z,10.60
2023-04-24T23:36:00.174Z,9.73
2023-04-24T23:38:30.117Z,7.88
2023-04-24T23:41:01.800Z,7.63
2023-04-24T23:43:28.522Z,6.28
2023-04-24T23:45:55.403Z,6.50
2023-04-24T23:48:22.515Z,7.22
2023-04-24T23:50:49.412Z,6.72
2023-04-24T23:53:22.964Z,6.57
2023-04-24T23:55:49.927Z,6.50
2023-04-24T23:58:18.815Z,6.43
